Time;durP1;ratioP1;P1;durP2;ratioP2;P2;SDS_P1;SDS_P2;PMS_P1;PMS_P2;Temp;Humidity;BMP_temperature;BMP_pressure;BME280_temperature;BME280_humidity;BME280_pressure;Samples;Min_cycle;Max_cycle;Signal;HPM_P1;HPM_P2
2022/08/09 00:02:06;;;;;;;287.92;188.18;;;;;;;;;;5040684;28;20219;-66
2022/08/09 00:04:33;;;;;;;370.15;223.75;;;;;;;;;;5040252;28;20249;-66
2022/08/09 00:06:59;;;;;;;336.55;209.88;;;;;;;;;;5040405;28;20190;-66
2022/08/09 00:09:25;;;;;;;363.85;218.68;;;;;;;;;;5038097;28;20223;-66
2022/08/09 00:11:52;;;;;;;327.58;198.85;;;;;;;;;;5023203;28;20257;-66
2022/08/09 00:14:17;;;;;;;341.75;205.25;;;;;;;;;;5041036;28;20297;-66
2022/08/09 00:16:44;;;;;;;283.63;181.43;;;;;;;;;;5040891;28;20231;-66
2022/08/09 00:19:10;;;;;;;322.23;202.63;;;;;;;;;;5040711;28;20229;-66
2022/08/09 00:21:36;;;;;;;320.52;195.95;;;;;;;;;;5038603;28;20191;-67
2022/08/09 00:24:02;;;;;;;316.02;195.70;;;;;;;;;;5041682;28;20235;-66
2022/08/09 00:26:29;;;;;;;310.20;189.85;;;;;;;;;;5039292;28;20262;-66
2022/08/09 00:28:55;;;;;;;348.67;208.32;;;;;;;;;;5042519;28;20247;-66
2022/08/09 00:31:22;;;;;;;365.95;215.77;;;;;;;;;;5032322;28;20374;-66
2022/08/09 00:33:49;;;;;;;305.67;196.90;;;;;;;;;;5020928;28;20580;-66
2022/08/09 00:36:15;;;;;;;294.58;184.98;;;;;;;;;;5044998;28;20621;-66
2022/08/09 00:38:41;;;;;;;291.58;185.55;;;;;;;;;;5038497;28;20215;-66
2022/08/09 00:41:07;;;;;;;310.77;193.13;;;;;;;;;;5016030;28;20304;-66
2022/08/09 00:43:35;;;;;;;308.42;190.85;;;;;;;;;;5018663;28;20223;-66
2022/08/09 00:46:02;;;;;;;312.73;190.40;;;;;;;;;;5036045;28;20187;-66
2022/08/09 00:48:28;;;;;;;323.33;192.98;;;;;;;;;;5041098;28;20241;-67
2022/08/09 00:50:54;;;;;;;295.63;183.73;;;;;;;;;;5043752;28;20250;-66
2022/08/09 00:53:21;;;;;;;335.02;210.95;;;;;;;;;;5038765;28;20218;-66
2022/08/09 00:55:47;;;;;;;332.83;200.32;;;;;;;;;;5040804;28;20249;-66
2022/08/09 00:58:13;;;;;;;324.45;200.25;;;;;;;;;;5040795;28;20187;-66
2022/08/09 01:00:40;;;;;;;285.08;181.75;;;;;;;;;;5039760;28;20312;-66
2022/08/09 01:03:16;;;;;;;331.60;201.57;;;;;;;;;;5042553;28;20281;-66
2022/08/09 01:05:51;;;;;;;305.00;186.38;;;;;;;;;;5043989;28;20215;-66
2022/08/09 01:08:17;;;;;;;291.67;179.27;;;;;;;;;;5045394;28;20219;-66
2022/08/09 01:10:52;;;;;;;290.67;183.57;;;;;;;;;;5039586;28;20241;-66
2022/08/09 01:13:29;;;;;;;304.17;189.32;;;;;;;;;;5038820;28;20190;-66
2022/08/09 01:15:56;;;;;;;325.35;198.30;;;;;;;;;;5035906;28;20179;-66
2022/08/09 01:18:26;;;;;;;302.77;187.90;;;;;;;;;;5043560;28;20553;-66
2022/08/09 01:21:07;;;;;;;331.17;202.98;;;;;;;;;;5040641;28;20219;-66
2022/08/09 01:23:51;;;;;;;339.17;203.20;;;;;;;;;;5039434;28;20208;-66
2022/08/09 01:26:44;;;;;;;324.20;197.00;;;;;;;;;;5036620;28;20230;-66
2022/08/09 01:29:12;;;;;;;312.00;193.50;;;;;;;;;;5039431;28;20219;-66
2022/08/09 01:31:39;;;;;;;328.05;194.07;;;;;;;;;;5039095;28;20220;-66
2022/08/09 01:34:05;;;;;;;278.27;177.10;;;;;;;;;;5039795;28;20180;-65
2022/08/09 01:36:33;;;;;;;335.30;208.50;;;;;;;;;;5041227;28;20188;-66
2022/08/09 01:39:00;;;;;;;355.08;216.90;;;;;;;;;;5026314;28;20219;-66
2022/08/09 01:41:28;;;;;;;326.50;200.73;;;;;;;;;;5035859;28;20224;-66
2022/08/09 01:43:55;;;;;;;313.08;197.13;;;;;;;;;;5038165;28;20227;-66
2022/08/09 01:46:27;;;;;;;373.15;218.32;;;;;;;;;;5038192;28;20227;-66
2022/08/09 01:48:55;;;;;;;346.45;211.43;;;;;;;;;;5040928;28;20562;-66
2022/08/09 01:51:22;;;;;;;287.23;179.90;;;;;;;;;;5041831;28;20224;-66
2022/08/09 01:53:49;;;;;;;299.23;184.05;;;;;;;;;;5039690;28;20596;-66
2022/08/09 01:56:16;;;;;;;358.13;212.85;;;;;;;;;;5032826;28;20219;-66
2022/08/09 01:58:44;;;;;;;304.08;183.77;;;;;;;;;;5038492;28;20216;-66
2022/08/09 02:01:10;;;;;;;350.20;211.43;;;;;;;;;;5035540;28;20211;-66
2022/08/09 02:03:36;;;;;;;296.67;189.40;;;;;;;;;;5043495;28;20187;-66
2022/08/09 02:06:05;;;;;;;342.48;209.52;;;;;;;;;;5043227;28;20269;-66
2022/08/09 02:08:31;;;;;;;331.83;202.43;;;;;;;;;;5044121;28;20231;-66
2022/08/09 02:10:58;;;;;;;309.90;200.13;;;;;;;;;;5043582;28;20223;-66
2022/08/09 02:13:25;;;;;;;330.48;203.60;;;;;;;;;;5042558;28;20778;-66
2022/08/09 02:15:52;;;;;;;343.83;212.48;;;;;;;;;;5043131;28;20187;-66
2022/08/09 02:18:20;;;;;;;358.98;218.52;;;;;;;;;;5043828;28;20219;-67
2022/08/09 02:20:48;;;;;;;271.45;180.40;;;;;;;;;;5046003;28;20223;-66
2022/08/09 02:23:22;;;;;;;278.10;182.52;;;;;;;;;;5042485;28;20220;-66
2022/08/09 02:25:50;;;;;;;341.92;215.25;;;;;;;;;;5041551;28;20222;-66
2022/08/09 02:28:19;;;;;;;290.13;188.90;;;;;;;;;;5046203;28;20187;-66
2022/08/09 02:30:48;;;;;;;293.42;189.75;;;;;;;;;;5041722;28;20208;-66
2022/08/09 02:33:15;;;;;;;331.90;206.63;;;;;;;;;;5037923;28;20241;-66
2022/08/09 02:35:42;;;;;;;321.63;208.55;;;;;;;;;;5039880;28;20660;-66
2022/08/09 02:38:09;;;;;;;292.00;192.25;;;;;;;;;;5042478;28;20235;-66
2022/08/09 02:40:36;;;;;;;325.38;206.35;;;;;;;;;;5040539;28;20215;-66
2022/08/09 02:43:03;;;;;;;340.73;210.45;;;;;;;;;;5037333;28;20199;-66
2022/08/09 02:45:30;;;;;;;328.20;206.02;;;;;;;;;;5041365;28;20187;-66
2022/08/09 02:48:00;;;;;;;316.77;201.45;;;;;;;;;;5040248;28;20219;-66
2022/08/09 02:50:28;;;;;;;322.60;204.20;;;;;;;;;;5038988;28;20215;-66
2022/08/09 02:52:57;;;;;;;313.30;204.73;;;;;;;;;;5041044;28;20285;-66
2022/08/09 02:55:25;;;;;;;384.55;229.10;;;;;;;;;;5040768;28;20304;-66
2022/08/09 02:57:51;;;;;;;303.35;198.50;;;;;;;;;;5039847;28;20191;-66
2022/08/09 03:00:17;;;;;;;296.05;193.10;;;;;;;;;;5025702;28;20270;-66
2022/08/09 03:02:46;;;;;;;318.17;201.60;;;;;;;;;;5042035;28;20876;-66
2022/08/09 03:05:12;;;;;;;341.25;212.40;;;;;;;;;;5037693;28;20223;-66
2022/08/09 03:07:38;;;;;;;337.02;214.32;;;;;;;;;;5038658;28;20226;-67
2022/08/09 03:10:05;;;;;;;346.70;219.10;;;;;;;;;;5036296;28;20211;-66
2022/08/09 03:12:32;;;;;;;315.55;198.05;;;;;;;;;;5039049;28;20181;-66
2022/08/09 03:14:58;;;;;;;333.50;217.63;;;;;;;;;;5042646;28;20220;-66
2022/08/09 03:17:25;;;;;;;322.05;209.23;;;;;;;;;;5046539;28;20273;-66
2022/08/09 03:19:51;;;;;;;304.75;196.82;;;;;;;;;;5041440;28;20800;-66
2022/08/09 03:22:18;;;;;;;290.40;190.80;;;;;;;;;;5042485;28;20184;-66
2022/08/09 03:24:44;;;;;;;353.35;216.82;;;;;;;;;;5040545;28;20196;-66
2022/08/09 03:27:11;;;;;;;291.70;192.73;;;;;;;;;;5044835;28;20280;-66
2022/08/09 03:29:38;;;;;;;315.77;206.88;;;;;;;;;;5021591;28;20219;-67
2022/08/09 03:32:04;;;;;;;313.80;207.57;;;;;;;;;;5036012;28;20310;-66
2022/08/09 03:34:31;;;;;;;339.52;214.15;;;;;;;;;;5040079;28;20219;-66
2022/08/09 03:36:57;;;;;;;354.88;224.50;;;;;;;;;;5042039;28;20223;-66
2022/08/09 03:39:26;;;;;;;349.38;218.32;;;;;;;;;;5041548;28;20253;-66
2022/08/09 03:41:53;;;;;;;347.45;221.68;;;;;;;;;;5043295;28;20226;-66
2022/08/09 03:44:20;;;;;;;272.92;183.00;;;;;;;;;;5043812;28;20211;-67
2022/08/09 03:46:46;;;;;;;326.77;208.80;;;;;;;;;;5040867;28;20676;-65
2022/08/09 03:49:12;;;;;;;320.55;211.90;;;;;;;;;;5039938;28;20184;-66
2022/08/09 03:51:42;;;;;;;325.77;208.07;;;;;;;;;;5038655;28;20204;-66
2022/08/09 03:54:09;;;;;;;312.13;199.02;;;;;;;;;;5026643;28;20627;-66
2022/08/09 03:56:35;;;;;;;341.13;214.35;;;;;;;;;;5039143;28;20284;-66
2022/08/09 03:59:01;;;;;;;328.95;208.35;;;;;;;;;;5041012;28;20219;-66
2022/08/09 04:01:28;;;;;;;341.77;220.32;;;;;;;;;;5038644;28;20608;-66
2022/08/09 04:03:54;;;;;;;345.65;217.10;;;;;;;;;;5041421;28;20214;-66
2022/08/09 04:06:20;;;;;;;318.77;205.88;;;;;;;;;;5039443;28;20230;-66
2022/08/09 04:08:46;;;;;;;322.33;200.15;;;;;;;;;;5041226;28;20215;-65
2022/08/09 04:11:12;;;;;;;342.10;218.45;;;;;;;;;;5036311;28;20758;-65
2022/08/09 04:13:38;;;;;;;296.45;181.30;;;;;;;;;;5018123;28;20797;-66
2022/08/09 04:16:04;;;;;;;306.27;191.45;;;;;;;;;;5039674;28;20195;-66
2022/08/09 04:18:30;;;;;;;345.77;215.52;;;;;;;;;;5043673;28;20199;-66
2022/08/09 04:20:56;;;;;;;349.02;214.40;;;;;;;;;;5038706;28;20238;-66
2022/08/09 04:23:22;;;;;;;278.45;177.20;;;;;;;;;;5042297;28;20591;-66
2022/08/09 04:25:48;;;;;;;341.35;206.20;;;;;;;;;;5040600;28;20223;-66
2022/08/09 04:28:14;;;;;;;302.70;193.18;;;;;;;;;;5038744;28;20198;-66
2022/08/09 04:30:40;;;;;;;276.65;174.88;;;;;;;;;;5019516;28;20275;-66
2022/08/09 04:33:06;;;;;;;318.00;201.07;;;;;;;;;;5042527;28;20218;-66
2022/08/09 04:35:32;;;;;;;309.77;193.00;;;;;;;;;;5047176;28;20219;-66
2022/08/09 04:37:58;;;;;;;313.52;201.23;;;;;;;;;;5041025;28;20790;-67
2022/08/09 04:40:46;;;;;;;332.08;203.65;;;;;;;;;;5041909;28;20231;-66
2022/08/09 04:43:10;;;;;;;303.23;188.55;;;;;;;;;;5041827;28;20195;-66
2022/08/09 04:45:36;;;;;;;355.67;218.90;;;;;;;;;;5041260;28;20647;-66
2022/08/09 04:48:02;;;;;;;338.42;211.07;;;;;;;;;;5042279;28;20215;-66
2022/08/09 04:50:28;;;;;;;299.20;185.75;;;;;;;;;;5039054;28;20219;-66
2022/08/09 04:52:54;;;;;;;311.20;195.13;;;;;;;;;;5038826;28;20540;-67
2022/08/09 04:55:20;;;;;;;368.50;220.07;;;;;;;;;;5040114;28;20593;-66
2022/08/09 04:57:46;;;;;;;335.92;205.02;;;;;;;;;;5020282;28;20203;-66
2022/08/09 05:00:12;;;;;;;315.20;196.85;;;;;;;;;;5041481;28;20230;-66
2022/08/09 05:02:40;;;;;;;346.08;203.60;;;;;;;;;;5039649;28;20231;-66
2022/08/09 05:05:07;;;;;;;282.73;189.00;;;;;;;;;;5046645;28;20620;-66
2022/08/09 05:07:33;;;;;;;293.02;194.98;;;;;;;;;;5045600;28;20216;-66
2022/08/09 05:09:59;;;;;;;340.20;211.15;;;;;;;;;;5043012;28;20214;-67
2022/08/09 05:12:25;;;;;;;338.23;208.43;;;;;;;;;;5038641;28;20215;-66
2022/08/09 05:14:51;;;;;;;321.23;204.35;;;;;;;;;;5024750;28;20230;-66
2022/08/09 05:17:17;;;;;;;309.77;201.50;;;;;;;;;;5042796;28;20559;-66
2022/08/09 05:19:43;;;;;;;310.60;204.00;;;;;;;;;;5046517;28;20219;-67
2022/08/09 05:22:11;;;;;;;340.30;220.60;;;;;;;;;;5042989;28;20187;-66
2022/08/09 05:24:37;;;;;;;330.67;213.18;;;;;;;;;;5021467;28;20194;-66
2022/08/09 05:27:03;;;;;;;320.10;208.05;;;;;;;;;;5036548;28;20223;-66
2022/08/09 05:29:28;;;;;;;322.17;208.68;;;;;;;;;;5038254;28;20226;-66
2022/08/09 05:31:58;;;;;;;292.65;195.13;;;;;;;;;;5040867;28;20494;-66
2022/08/09 05:34:26;;;;;;;420.73;248.63;;;;;;;;;;5022458;28;20227;-67
2022/08/09 05:36:51;;;;;;;290.63;186.30;;;;;;;;;;5037182;28;20180;-66
2022/08/09 05:39:17;;;;;;;327.20;210.82;;;;;;;;;;5020993;28;20771;-67
2022/08/09 05:41:43;;;;;;;319.95;209.38;;;;;;;;;;5041999;28;20243;-67
2022/08/09 05:44:10;;;;;;;325.35;208.20;;;;;;;;;;5046546;28;20564;-66
2022/08/09 05:46:36;;;;;;;310.83;199.63;;;;;;;;;;5020243;28;21113;-67
2022/08/09 05:49:01;;;;;;;392.33;241.93;;;;;;;;;;5038411;28;20191;-67
2022/08/09 05:51:27;;;;;;;347.77;221.98;;;;;;;;;;5042293;28;20199;-67
2022/08/09 05:53:53;;;;;;;330.58;215.77;;;;;;;;;;5042483;28;20235;-66
2022/08/09 05:56:19;;;;;;;310.45;207.60;;;;;;;;;;5039631;28;20215;-66
2022/08/09 05:58:45;;;;;;;313.88;206.35;;;;;;;;;;5046170;28;20215;-66
2022/08/09 06:01:12;;;;;;;330.05;221.10;;;;;;;;;;5039705;28;20725;-66
2022/08/09 06:03:38;;;;;;;318.60;212.40;;;;;;;;;;5046097;28;20187;-66
2022/08/09 06:06:04;;;;;;;328.45;213.73;;;;;;;;;;5040061;28;20656;-67
2022/08/09 06:08:29;;;;;;;282.83;202.68;;;;;;;;;;5047586;28;20227;-67
2022/08/09 06:10:56;;;;;;;331.10;220.82;;;;;;;;;;5047329;28;20223;-66
2022/08/09 06:13:22;;;;;;;288.10;202.07;;;;;;;;;;5052551;28;20228;-66
2022/08/09 06:15:49;;;;;;;326.02;219.65;;;;;;;;;;5047920;28;20775;-66
2022/08/09 06:18:14;;;;;;;290.80;204.43;;;;;;;;;;5045438;28;20230;-68
2022/08/09 06:20:40;;;;;;;358.27;236.80;;;;;;;;;;5026676;28;20227;-67
2022/08/09 06:23:07;;;;;;;311.88;213.23;;;;;;;;;;5022045;28;20273;-67
2022/08/09 06:25:33;;;;;;;314.33;221.10;;;;;;;;;;5046320;28;20226;-77
2022/08/09 06:27:59;;;;;;;347.67;230.35;;;;;;;;;;5047738;28;20195;-79
2022/08/09 06:30:25;;;;;;;474.52;293.63;;;;;;;;;;5028479;28;21148;-76
2022/08/09 06:32:51;;;;;;;390.23;252.30;;;;;;;;;;5042140;28;20219;-69
2022/08/09 06:35:17;;;;;;;311.15;219.00;;;;;;;;;;5044816;28;20223;-70
2022/08/09 06:37:43;;;;;;;310.88;213.38;;;;;;;;;;5042718;28;20289;-69
2022/08/09 06:40:10;;;;;;;314.05;215.90;;;;;;;;;;5026894;28;20206;-69
2022/08/09 06:42:36;;;;;;;308.92;213.60;;;;;;;;;;5048567;28;20260;-70
2022/08/09 06:45:02;;;;;;;345.52;236.60;;;;;;;;;;5041605;28;20360;-68
2022/08/09 06:47:28;;;;;;;313.00;222.65;;;;;;;;;;5044552;28;20227;-68
2022/08/09 06:49:54;;;;;;;385.30;260.80;;;;;;;;;;5046958;28;20226;-71
2022/08/09 06:52:20;;;;;;;351.98;242.48;;;;;;;;;;5038958;28;20183;-69
2022/08/09 06:54:46;;;;;;;355.85;249.27;;;;;;;;;;5042641;28;20784;-71
2022/08/09 06:57:13;;;;;;;343.27;233.98;;;;;;;;;;5040234;28;20227;-74
2022/08/09 06:59:38;;;;;;;317.15;220.55;;;;;;;;;;5027654;28;20223;-71
2022/08/09 07:02:04;;;;;;;337.20;236.75;;;;;;;;;;5047290;28;20269;-71
2022/08/09 07:04:30;;;;;;;317.27;231.85;;;;;;;;;;5047244;28;20683;-71
2022/08/09 07:06:56;;;;;;;334.05;235.43;;;;;;;;;;5046073;28;20175;-70
2022/08/09 07:09:22;;;;;;;344.65;241.93;;;;;;;;;;5042347;28;20219;-73
2022/08/09 07:11:49;;;;;;;375.25;261.85;;;;;;;;;;5045590;28;20234;-73
2022/08/09 07:14:16;;;;;;;328.10;240.73;;;;;;;;;;5050137;28;20645;-72
2022/08/09 07:16:43;;;;;;;345.63;247.20;;;;;;;;;;5045697;28;20223;-73
2022/08/09 07:19:12;;;;;;;339.80;241.80;;;;;;;;;;5045267;28;20180;-72
2022/08/09 07:21:38;;;;;;;363.27;255.68;;;;;;;;;;5044866;28;20192;-73
2022/08/09 07:24:04;;;;;;;410.98;280.25;;;;;;;;;;5042662;28;20232;-70
2022/08/09 07:26:30;;;;;;;333.33;232.43;;;;;;;;;;5041246;28;20285;-71
2022/08/09 07:28:56;;;;;;;403.23;262.83;;;;;;;;;;5046309;28;20306;-70
2022/08/09 07:31:22;;;;;;;354.10;239.65;;;;;;;;;;5045298;28;20288;-79
2022/08/09 07:33:48;;;;;;;376.15;260.45;;;;;;;;;;5038110;28;20183;-80
2022/08/09 07:36:15;;;;;;;359.67;244.13;;;;;;;;;;5043327;28;20234;-80
2022/08/09 07:38:40;;;;;;;354.63;241.45;;;;;;;;;;5044081;28;20246;-80
2022/08/09 07:41:06;;;;;;;374.30;242.57;;;;;;;;;;5025019;28;20669;-80
2022/08/09 07:43:32;;;;;;;397.17;252.52;;;;;;;;;;5047674;28;20226;-80
2022/08/09 07:45:58;;;;;;;391.38;262.40;;;;;;;;;;5043542;28;20184;-80
2022/08/09 07:48:24;;;;;;;371.10;242.82;;;;;;;;;;5024972;28;20223;-80
2022/08/09 07:50:50;;;;;;;413.47;271.97;;;;;;;;;;5042140;28;20227;-79
2022/08/09 07:53:16;;;;;;;;;;;;;;;;;;5039631;28;20263;-80
2022/08/09 07:55:42;;;;;;;;;;;;;;;;;;5026973;28;20111;-80
2022/08/09 07:58:08;;;;;;;;;;;;;;;;;;5044704;28;20697;-80
2022/08/09 08:00:34;;;;;;;;;;;;;;;;;;5048034;28;20175;-79
2022/08/09 08:03:00;;;;;;;359.15;249.35;;;;;;;;;;5024344;28;20230;-80
2022/08/09 08:05:26;;;;;;;354.25;247.73;;;;;;;;;;5049670;28;20252;-80
2022/08/09 08:07:53;;;;;;;379.15;275.15;;;;;;;;;;5029446;28;22104;-79
2022/08/09 08:10:20;;;;;;;349.10;240.23;;;;;;;;;;5048239;28;20246;-80
2022/08/09 08:12:46;;;;;;;342.15;236.30;;;;;;;;;;5052816;28;20180;-80
2022/08/09 08:15:13;;;;;;;337.98;239.27;;;;;;;;;;5033299;28;20212;-80
2022/08/09 08:17:39;;;;;;;386.10;259.58;;;;;;;;;;5053803;28;20235;-81
2022/08/09 08:20:05;;;;;;;346.42;241.77;;;;;;;;;;5033471;28;20367;-80
2022/08/09 08:22:31;;;;;;;367.13;258.95;;;;;;;;;;5052991;28;20230;-81
2022/08/09 08:24:57;;;;;;;371.00;257.20;;;;;;;;;;5048468;28;20247;-81
2022/08/09 08:27:23;;;;;;;344.60;237.65;;;;;;;;;;5034201;28;20270;-80
2022/08/09 08:29:50;;;;;;;373.48;251.07;;;;;;;;;;5043332;28;20327;-81
2022/08/09 08:32:17;;;;;;;372.65;257.35;;;;;;;;;;5034542;28;20216;-81
2022/08/09 08:34:43;;;;;;;351.35;247.98;;;;;;;;;;5035575;28;20227;-81
2022/08/09 08:37:08;;;;;;;382.90;266.75;;;;;;;;;;5023677;28;20225;-80
2022/08/09 08:39:34;;;;;;;360.30;251.43;;;;;;;;;;5033851;28;20198;-80
2022/08/09 08:42:01;;;;;;;368.95;265.15;;;;;;;;;;5035723;28;20211;-80
2022/08/09 08:44:28;;;;;;;362.63;259.20;;;;;;;;;;5051751;28;20231;-80
2022/08/09 08:46:54;;;;;;;373.95;262.65;;;;;;;;;;5045068;28;20715;-81
2022/08/09 08:49:21;;;;;;;346.55;243.70;;;;;;;;;;5048277;28;20208;-81
2022/08/09 08:51:48;;;;;;;374.95;267.60;;;;;;;;;;5033369;28;20675;-80
2022/08/09 08:54:14;;;;;;;345.48;255.18;;;;;;;;;;5053814;28;20720;-80
2022/08/09 08:56:40;;;;;;;355.52;237.20;;;;;;;;;;5036260;28;20212;-80
2022/08/09 08:59:09;;;;;;;348.05;236.60;;;;;;;;;;5027815;28;20234;-80
2022/08/09 09:01:36;;;;;;;345.20;232.30;;;;;;;;;;5053009;28;20272;-80
2022/08/09 09:04:03;;;;;;;366.48;244.95;;;;;;;;;;5050984;28;20202;-80
2022/08/09 09:06:31;;;;;;;349.52;230.35;;;;;;;;;;5044733;28;20642;-80
2022/08/09 09:08:57;;;;;;;368.40;245.30;;;;;;;;;;5049211;28;20216;-80
2022/08/09 09:11:24;;;;;;;356.98;235.10;;;;;;;;;;5035479;28;20510;-80
2022/08/09 09:13:52;;;;;;;378.15;254.10;;;;;;;;;;5048518;28;20306;-80
2022/08/09 09:16:17;;;;;;;373.25;253.70;;;;;;;;;;5050787;28;20176;-80
2022/08/09 09:18:44;;;;;;;368.63;251.07;;;;;;;;;;5047624;28;20815;-81
2022/08/09 09:21:10;;;;;;;345.92;250.23;;;;;;;;;;5048975;28;20219;-80
2022/08/09 09:23:43;;;;;;;361.52;241.50;;;;;;;;;;5046462;28;20207;-80
2022/08/09 09:26:12;;;;;;;346.63;235.00;;;;;;;;;;5035516;28;20234;-80
2022/08/09 09:28:38;;;;;;;342.55;231.68;;;;;;;;;;5033007;28;20641;-80
2022/08/09 09:31:04;;;;;;;339.52;231.23;;;;;;;;;;5033129;28;20372;-80
2022/08/09 09:33:35;;;;;;;359.25;239.55;;;;;;;;;;5051513;28;20175;-80
2022/08/09 09:36:02;;;;;;;390.25;261.58;;;;;;;;;;5042573;28;20212;-80
2022/08/09 09:38:47;;;;;;;365.65;248.00;;;;;;;;;;5045869;28;20288;-80
2022/08/09 09:41:25;;;;;;;375.45;250.48;;;;;;;;;;5027952;28;20215;-80
2022/08/09 09:43:51;;;;;;;383.33;254.82;;;;;;;;;;5043805;28;20687;-80
2022/08/09 09:46:17;;;;;;;363.13;245.60;;;;;;;;;;5036047;28;20187;-80
2022/08/09 09:48:57;;;;;;;373.80;268.40;;;;;;;;;;5050377;28;20708;-79
2022/08/09 09:51:23;;;;;;;348.08;235.43;;;;;;;;;;5049091;28;20381;-79
2022/08/09 09:54:07;;;;;;;379.75;252.80;;;;;;;;;;5035200;28;20863;-79
2022/08/09 09:56:34;;;;;;;360.50;244.63;;;;;;;;;;5049957;28;20269;-80
2022/08/09 09:59:00;;;;;;;388.17;270.08;;;;;;;;;;5025978;28;20222;-80
2022/08/09 10:01:26;;;;;;;378.70;259.88;;;;;;;;;;5047423;28;20725;-80
2022/08/09 10:03:54;;;;;;;404.10;268.92;;;;;;;;;;5051749;28;20192;-79
2022/08/09 10:06:20;;;;;;;362.63;258.50;;;;;;;;;;5051458;28;20214;-79
2022/08/09 10:08:47;;;;;;;362.63;260.48;;;;;;;;;;5044070;28;20219;-79
2022/08/09 10:11:17;;;;;;;379.33;261.35;;;;;;;;;;5045676;28;20216;-79
2022/08/09 10:13:43;;;;;;;369.80;254.52;;;;;;;;;;5047255;28;20393;-80
2022/08/09 10:16:09;;;;;;;375.45;259.20;;;;;;;;;;5047225;28;20249;-80
2022/08/09 10:18:35;;;;;;;383.67;265.23;;;;;;;;;;5039309;28;20184;-80
2022/08/09 10:21:05;;;;;;;390.48;269.67;;;;;;;;;;5048892;28;20334;-80
2022/08/09 10:23:31;;;;;;;383.58;266.33;;;;;;;;;;5045836;28;20276;-80
2022/08/09 10:25:57;;;;;;;399.83;275.20;;;;;;;;;;5048139;28;20227;-80
2022/08/09 10:28:23;;;;;;;364.67;256.95;;;;;;;;;;5035435;28;20219;-80
2022/08/09 10:30:49;;;;;;;394.13;269.65;;;;;;;;;;5047184;28;20204;-80
2022/08/09 10:33:16;;;;;;;375.42;259.67;;;;;;;;;;5030010;28;20231;-80
2022/08/09 10:35:42;;;;;;;421.52;289.67;;;;;;;;;;5049268;28;20226;-80
2022/08/09 10:38:08;;;;;;;364.05;253.77;;;;;;;;;;5055360;28;20218;-80
2022/08/09 10:40:35;;;;;;;389.50;268.30;;;;;;;;;;5037266;28;20232;-80
2022/08/09 10:43:01;;;;;;;386.90;263.75;;;;;;;;;;5038166;28;20199;-80
2022/08/09 10:45:29;;;;;;;395.00;269.05;;;;;;;;;;5031644;28;20226;-80
2022/08/09 10:48:06;;;;;;;417.70;284.50;;;;;;;;;;5047578;28;20219;-80
2022/08/09 10:53:48;;;;;;;379.48;268.92;;;;;;;;;;5052682;28;20329;-80
2022/08/09 10:56:20;;;;;;;375.10;266.00;;;;;;;;;;5031744;28;20238;-80
2022/08/09 10:58:47;;;;;;;373.95;264.17;;;;;;;;;;5054259;28;20223;-80
2022/08/09 11:01:31;;;;;;;372.02;262.20;;;;;;;;;;5049499;28;20199;-80
2022/08/09 11:04:09;;;;;;;393.25;274.17;;;;;;;;;;5051819;28;20179;-80
2022/08/09 11:06:36;;;;;;;393.15;278.85;;;;;;;;;;5032232;28;20723;-80
2022/08/09 11:09:06;;;;;;;395.35;299.02;;;;;;;;;;5052122;28;20717;-80
2022/08/09 11:11:51;;;;;;;390.48;282.02;;;;;;;;;;5036993;28;20556;-80
2022/08/09 11:14:37;;;;;;;374.27;263.88;;;;;;;;;;5027599;28;20715;-80
2022/08/09 11:17:25;;;;;;;435.50;309.15;;;;;;;;;;5049873;28;20841;-80
2022/08/09 11:19:54;;;;;;;407.30;287.35;;;;;;;;;;5040351;28;20302;-80
2022/08/09 11:22:43;;;;;;;372.08;271.67;;;;;;;;;;5049602;28;20180;-80
2022/08/09 11:25:09;;;;;;;367.63;269.77;;;;;;;;;;5044056;28;20192;-79
2022/08/09 11:27:40;;;;;;;371.35;271.75;;;;;;;;;;5047210;28;20194;-79
2022/08/09 11:30:07;;;;;;;396.02;286.48;;;;;;;;;;5037488;28;20215;-80
2022/08/09 11:32:39;;;;;;;388.65;280.90;;;;;;;;;;5050863;28;20250;-80
2022/08/09 11:35:08;;;;;;;383.20;280.33;;;;;;;;;;5046230;28;20212;-80
2022/08/09 11:37:35;;;;;;;373.85;273.65;;;;;;;;;;5049531;28;20219;-80
2022/08/09 11:40:05;;;;;;;404.13;292.92;;;;;;;;;;5035222;28;20207;-80
2022/08/09 11:42:58;;;;;;;418.25;293.63;;;;;;;;;;5050146;28;20215;-80
2022/08/09 11:45:27;;;;;;;366.80;276.60;;;;;;;;;;5029337;28;20219;-80
2022/08/09 11:47:56;;;;;;;409.42;303.67;;;;;;;;;;5054999;28;20215;-80
2022/08/09 11:50:22;;;;;;;407.58;298.27;;;;;;;;;;5030703;28;20227;-80
2022/08/09 11:53:01;;;;;;;425.73;317.42;;;;;;;;;;5050199;28;20249;-79
2022/08/09 11:55:40;;;;;;;393.23;293.40;;;;;;;;;;5046616;28;20219;-80
2022/08/09 11:58:15;;;;;;;365.27;278.30;;;;;;;;;;5049947;28;20175;-80
2022/08/09 12:00:47;;;;;;;395.17;301.35;;;;;;;;;;5051225;28;20222;-79
2022/08/09 12:03:16;;;;;;;371.58;285.45;;;;;;;;;;5049216;28;20222;-80
2022/08/09 12:05:42;;;;;;;395.73;302.48;;;;;;;;;;5046024;28;20216;-80
2022/08/09 12:08:08;;;;;;;374.00;297.58;;;;;;;;;;5033522;28;20222;-79
2022/08/09 12:10:34;;;;;;;390.92;299.98;;;;;;;;;;5049781;28;20234;-79
2022/08/09 12:13:00;;;;;;;403.13;312.00;;;;;;;;;;5027451;28;20211;-80
2022/08/09 12:15:27;;;;;;;430.65;327.67;;;;;;;;;;5049100;28;20673;-80
2022/08/09 12:17:54;;;;;;;400.77;312.58;;;;;;;;;;5049912;28;20318;-80
2022/08/09 12:20:22;;;;;;;382.63;307.98;;;;;;;;;;5042397;28;20230;-80
2022/08/09 12:22:53;;;;;;;402.02;316.40;;;;;;;;;;5030772;28;20216;-80
2022/08/09 12:25:19;;;;;;;387.30;307.35;;;;;;;;;;5048273;28;20210;-80
2022/08/09 12:27:45;;;;;;;392.88;307.65;;;;;;;;;;5048363;28;20218;-80
2022/08/09 12:30:12;;;;;;;383.23;305.35;;;;;;;;;;5050278;28;20224;-80
2022/08/09 12:32:38;;;;;;;401.58;318.35;;;;;;;;;;5046210;28;20215;-80
2022/08/09 12:35:05;;;;;;;389.30;312.52;;;;;;;;;;5051173;28;20289;-80
2022/08/09 12:37:35;;;;;;;379.25;310.92;;;;;;;;;;5052470;28;20230;-80
2022/08/09 12:40:02;;;;;;;422.92;327.90;;;;;;;;;;5034391;28;20203;-80
2022/08/09 12:42:28;;;;;;;402.60;326.90;;;;;;;;;;5052522;28;20207;-81
2022/08/09 12:44:54;;;;;;;414.05;319.70;;;;;;;;;;5031805;28;20237;-80
2022/08/09 12:47:21;;;;;;;385.38;314.95;;;;;;;;;;5049880;28;20224;-80
2022/08/09 12:50:15;;;;;;;388.45;313.85;;;;;;;;;;5053574;28;20234;-80
2022/08/09 12:52:36;;;;;;;376.90;306.35;;;;;;;;;;5044784;28;20226;-81
2022/08/09 12:55:02;;;;;;;421.35;343.50;;;;;;;;;;5055611;28;20171;-81
2022/08/09 12:57:42;;;;;;;401.63;334.13;;;;;;;;;;5052970;28;20183;-79
2022/08/09 13:00:14;;;;;;;391.17;330.65;;;;;;;;;;5036256;28;20222;-80
2022/08/09 13:02:54;;;;;;;432.95;358.67;;;;;;;;;;5043066;28;20231;-80
2022/08/09 13:05:21;;;;;;;414.50;345.52;;;;;;;;;;5044788;28;20253;-79
2022/08/09 13:08:06;;;;;;;447.45;364.60;;;;;;;;;;5049731;28;20223;-80
2022/08/09 13:10:42;;;;;;;407.38;339.58;;;;;;;;;;5059536;28;20258;-80
2022/08/09 13:13:08;;;;;;;397.55;338.67;;;;;;;;;;5062765;28;20183;-81
2022/08/09 13:15:34;;;;;;;424.95;356.33;;;;;;;;;;5056553;28;20187;-80
2022/08/09 13:18:03;;;;;;;444.92;368.10;;;;;;;;;;5045502;28;20234;-80
2022/08/09 13:20:33;;;;;;;408.08;362.90;;;;;;;;;;5061770;28;20222;-80
2022/08/09 13:22:59;;;;;;;411.73;366.42;;;;;;;;;;5060084;28;20227;-80
2022/08/09 13:25:25;;;;;;;415.42;361.83;;;;;;;;;;5049103;28;20230;-80
2022/08/09 13:27:51;;;;;;;412.35;365.27;;;;;;;;;;5065455;28;20160;-81
2022/08/09 13:30:19;;;;;;;397.45;354.90;;;;;;;;;;5062238;28;20930;-80
2022/08/09 13:32:52;;;;;;;492.20;399.95;;;;;;;;;;5057231;28;20234;-80
2022/08/09 13:35:22;;;;;;;439.80;368.98;;;;;;;;;;5037545;28;20226;-80
2022/08/09 13:37:49;;;;;;;490.85;387.58;;;;;;;;;;5029474;28;20227;-77
2022/08/09 13:40:15;;;;;;;424.70;368.90;;;;;;;;;;5036978;28;20216;-69
2022/08/09 13:42:41;;;;;;;409.08;358.38;;;;;;;;;;5042823;28;20465;-69
2022/08/09 13:45:08;;;;;;;422.20;372.40;;;;;;;;;;5041529;28;21354;-69
2022/08/09 13:47:34;;;;;;;429.40;380.05;;;;;;;;;;5040687;28;20211;-70
2022/08/09 13:50:01;;;;;;;451.10;385.67;;;;;;;;;;5038220;28;20334;-69
2022/08/09 13:52:27;;;;;;;408.17;360.40;;;;;;;;;;5026676;28;20216;-69
2022/08/09 13:54:54;;;;;;;441.88;381.25;;;;;;;;;;5039855;28;20187;-70
2022/08/09 13:57:20;;;;;;;411.50;365.00;;;;;;;;;;5039224;28;20222;-85
2022/08/09 13:59:46;;;;;;;412.90;366.95;;;;;;;;;;5043136;28;20227;-78
2022/08/09 14:02:11;;;;;;;437.73;388.48;;;;;;;;;;5051257;28;20227;-77